sensor_id;sensor_type;location;lat;lon;timestamp;pressure;altitude;pressure_sealevel;temperature;humidity
33486;BME280;19824;52.098;5.004;2023-03-14T06:02:39;98813.19;;;11.57;91.37
33486;BME280;19824;52.098;5.004;2023-03-14T06:05:22;98827.06;;;11.53;92.39
33486;BME280;19824;52.098;5.004;2023-03-14T06:07:59;98832.88;;;11.56;93.33
33486;BME280;19824;52.098;5.004;2023-03-14T06:10:29;98848.16;;;11.48;92.56
33486;BME280;19824;52.098;5.004;2023-03-14T06:13:06;98856.28;;;11.33;92.44
33486;BME280;19824;52.098;5.004;2023-03-14T06:15:36;98856.00;;;11.22;92.79
33486;BME280;19824;52.098;5.004;2023-03-14T06:18:16;98860.22;;;11.10;93.03
33486;BME280;19824;52.098;5.004;2023-03-14T06:20:46;98862.03;;;11.03;92.88
33486;BME280;19824;52.098;5.004;2023-03-14T06:23:23;98877.13;;;10.96;92.13
33486;BME280;19824;52.098;5.004;2023-03-14T06:26:00;98889.38;;;10.90;91.76
33486;BME280;19824;52.098;5.004;2023-03-14T06:28:30;98896.69;;;10.82;92.34
33486;BME280;19824;52.098;5.004;2023-03-14T06:31:07;98901.13;;;10.75;92.67
33486;BME280;19824;52.098;5.004;2023-03-14T06:33:40;98910.31;;;10.72;92.10
33486;BME280;19824;52.098;5.004;2023-03-14T06:36:16;98920.47;;;10.63;93.57
33486;BME280;19824;52.098;5.004;2023-03-14T06:38:46;98930.56;;;10.67;92.27
33486;BME280;19824;52.098;5.004;2023-03-14T06:41:23;98940.19;;;10.68;92.22
33486;BME280;19824;52.098;5.004;2023-03-14T06:43:53;98937.47;;;10.62;92.48
33486;BME280;19824;52.098;5.004;2023-03-14T06:46:30;98942.22;;;10.66;92.45
33486;BME280;19824;52.098;5.004;2023-03-14T06:49:03;98949.28;;;10.59;92.65
33486;BME280;19824;52.098;5.004;2023-03-14T06:51:40;98956.66;;;10.57;92.58
33486;BME280;19824;52.098;5.004;2023-03-14T06:54:10;98964.66;;;10.57;92.48
33486;BME280;19824;52.098;5.004;2023-03-14T06:56:47;98966.69;;;10.55;92.93
33486;BME280;19824;52.098;5.004;2023-03-14T06:59:17;98972.94;;;10.48;93.04
33486;BME280;19824;52.098;5.004;2023-03-14T07:01:57;98981.56;;;10.50;93.60
33486;BME280;19824;52.098;5.004;2023-03-14T07:04:30;98996.31;;;10.52;92.67
33486;BME280;19824;52.098;5.004;2023-03-14T07:07:06;99000.44;;;10.55;92.86
33486;BME280;19824;52.098;5.004;2023-03-14T07:09:36;99013.94;;;10.53;92.72
33486;BME280;19824;52.098;5.004;2023-03-14T07:12:13;99032.72;;;10.52;92.30
33486;BME280;19824;52.098;5.004;2023-03-14T07:14:43;99041.66;;;10.44;92.12
33486;BME280;19824;52.098;5.004;2023-03-14T07:17:20;99054.31;;;10.42;93.02
33486;BME280;19824;52.098;5.004;2023-03-14T07:19:53;99069.03;;;10.38;92.83
33486;BME280;19824;52.098;5.004;2023-03-14T07:22:32;99079.47;;;10.40;92.49
33486;BME280;19824;52.098;5.004;2023-03-14T07:25:02;99092.78;;;10.40;92.21
33486;BME280;19824;52.098;5.004;2023-03-14T07:27:39;99098.66;;;10.35;92.54
33486;BME280;19824;52.098;5.004;2023-03-14T07:30:11;99104.06;;;10.42;92.16
33486;BME280;19824;52.098;5.004;2023-03-14T07:32:48;99119.66;;;10.30;92.41
33486;BME280;19824;52.098;5.004;2023-03-14T07:35:21;99130.28;;;10.30;92.37
33486;BME280;19824;52.098;5.004;2023-03-14T07:37:58;99125.16;;;10.29;92.23
33486;BME280;19824;52.098;5.004;2023-03-14T07:40:28;99139.38;;;10.21;92.11
33486;BME280;19824;52.098;5.004;2023-03-14T07:43:05;99153.97;;;10.25;91.99
33486;BME280;19824;52.098;5.004;2023-03-14T07:45:45;99167.88;;;10.27;92.59
33486;BME280;19824;52.098;5.004;2023-03-14T07:48:17;99175.25;;;10.25;92.24
33486;BME280;19824;52.098;5.004;2023-03-14T07:50:58;99190.38;;;10.25;91.98
33486;BME280;19824;52.098;5.004;2023-03-14T07:53:28;99194.78;;;10.32;91.70
33486;BME280;19824;52.098;5.004;2023-03-14T07:56:05;99209.19;;;10.23;92.04
33486;BME280;19824;52.098;5.004;2023-03-14T07:58:36;99221.19;;;10.19;92.23
33486;BME280;19824;52.098;5.004;2023-03-14T08:01:12;99236.94;;;10.21;91.73
33486;BME280;19824;52.098;5.004;2023-03-14T08:03:42;99254.81;;;10.12;92.07
33486;BME280;19824;52.098;5.004;2023-03-14T08:06:22;99283.50;;;10.02;91.44
33486;BME280;19824;52.098;5.004;2023-03-14T08:08:52;99291.91;;;9.83;91.46
33486;BME280;19824;52.098;5.004;2023-03-14T08:11:28;99312.66;;;9.58;91.37
33486;BME280;19824;52.098;5.004;2023-03-14T08:14:05;99314.81;;;9.32;90.95
33486;BME280;19824;52.098;5.004;2023-03-14T08:16:36;99340.56;;;9.15;90.84
33486;BME280;19824;52.098;5.004;2023-03-14T08:19:12;99338.63;;;9.09;91.33
33486;BME280;19824;52.098;5.004;2023-03-14T08:21:45;99354.22;;;9.04;90.72
33486;BME280;19824;52.098;5.004;2023-03-14T08:24:21;99366.69;;;8.96;91.27
33486;BME280;19824;52.098;5.004;2023-03-14T08:26:58;99376.66;;;8.94;91.14
33486;BME280;19824;52.098;5.004;2023-03-14T08:29:28;99386.59;;;8.92;90.99
33486;BME280;19824;52.098;5.004;2023-03-14T08:32:05;99400.53;;;9.02;90.72
33486;BME280;19824;52.098;5.004;2023-03-14T08:34:43;99409.81;;;8.98;91.19
33486;BME280;19824;52.098;5.004;2023-03-14T08:37:16;99424.75;;;8.99;90.79
33486;BME280;19824;52.098;5.004;2023-03-14T08:39:54;99433.69;;;9.06;90.57
33486;BME280;19824;52.098;5.004;2023-03-14T08:42:24;99447.78;;;9.14;90.37
33486;BME280;19824;52.098;5.004;2023-03-14T08:45:01;99446.94;;;9.30;90.45
33486;BME280;19824;52.098;5.004;2023-03-14T08:47:32;99468.16;;;9.46;90.14
33486;BME280;19824;52.098;5.004;2023-03-14T08:50:10;99471.78;;;9.61;90.01
33486;BME280;19824;52.098;5.004;2023-03-14T08:52:45;99480.69;;;9.75;89.07
33486;BME280;19824;52.098;5.004;2023-03-14T08:55:21;99491.41;;;9.90;89.09
33486;BME280;19824;52.098;5.004;2023-03-14T08:57:51;99493.13;;;9.83;87.71
33486;BME280;19824;52.098;5.004;2023-03-14T09:00:28;99506.03;;;9.94;87.13
33486;BME280;19824;52.098;5.004;2023-03-14T09:02:59;99512.19;;;10.02;87.20
33486;BME280;19824;52.098;5.004;2023-03-14T09:05:36;99527.94;;;10.12;87.77
33486;BME280;19824;52.098;5.004;2023-03-14T09:08:09;99531.72;;;10.25;86.81
33486;BME280;19824;52.098;5.004;2023-03-14T09:10:45;99535.31;;;10.40;87.24
33486;BME280;19824;52.098;5.004;2023-03-14T09:13:15;99553.19;;;10.54;86.50
33486;BME280;19824;52.098;5.004;2023-03-14T09:15:52;99564.19;;;10.51;86.13
33486;BME280;19824;52.098;5.004;2023-03-14T09:18:23;99571.16;;;10.52;85.37
33486;BME280;19824;52.098;5.004;2023-03-14T09:20:59;99579.28;;;10.51;84.33
33486;BME280;19824;52.098;5.004;2023-03-14T09:23:39;99599.63;;;10.44;82.75
33486;BME280;19824;52.098;5.004;2023-03-14T09:26:12;99607.31;;;10.39;82.98
33486;BME280;19824;52.098;5.004;2023-03-14T09:28:49;99619.47;;;10.33;82.50
33486;BME280;19824;52.098;5.004;2023-03-14T09:31:19;99624.44;;;10.36;81.74
33486;BME280;19824;52.098;5.004;2023-03-14T09:33:56;99636.28;;;10.34;81.62
33486;BME280;19824;52.098;5.004;2023-03-14T09:36:27;99655.69;;;10.42;81.71
33486;BME280;19824;52.098;5.004;2023-03-14T09:39:06;99659.66;;;10.46;81.10
33486;BME280;19824;52.098;5.004;2023-03-14T09:41:41;99669.31;;;10.47;80.00
33486;BME280;19824;52.098;5.004;2023-03-14T09:44:24;99677.44;;;10.54;80.29
33486;BME280;19824;52.098;5.004;2023-03-14T09:46:58;99681.28;;;10.43;79.70
33486;BME280;19824;52.098;5.004;2023-03-14T09:49:39;99692.25;;;10.48;79.54
33486;BME280;19824;52.098;5.004;2023-03-14T09:52:16;99700.91;;;10.42;79.15
33486;BME280;19824;52.098;5.004;2023-03-14T09:54:59;99706.28;;;10.34;79.25
33486;BME280;19824;52.098;5.004;2023-03-14T09:57:34;99717.53;;;10.44;79.02
33486;BME280;19824;52.098;5.004;2023-03-14T10:00:16;99727.72;;;10.41;77.89
33486;BME280;19824;52.098;5.004;2023-03-14T10:02:56;99749.16;;;10.31;78.49
33486;BME280;19824;52.098;5.004;2023-03-14T10:05:26;99777.78;;;10.29;78.91
33486;BME280;19824;52.098;5.004;2023-03-14T10:08:04;99782.59;;;10.10;78.54
33486;BME280;19824;52.098;5.004;2023-03-14T10:10:37;99801.19;;;9.86;78.82
33486;BME280;19824;52.098;5.004;2023-03-14T10:13:17;99809.09;;;9.54;78.71
33486;BME280;19824;52.098;5.004;2023-03-14T10:15:52;99803.91;;;9.45;79.15
33486;BME280;19824;52.098;5.004;2023-03-14T10:18:30;99807.88;;;9.41;79.38
33486;BME280;19824;52.098;5.004;2023-03-14T10:21:05;99820.84;;;9.44;78.34
33486;BME280;19824;52.098;5.004;2023-03-14T10:23:43;99828.50;;;9.47;79.31
33486;BME280;19824;52.098;5.004;2023-03-14T10:26:24;99845.94;;;9.49;77.94
33486;BME280;19824;52.098;5.004;2023-03-14T10:29:11;99851.13;;;9.67;77.72
33486;BME280;19824;52.098;5.004;2023-03-14T10:31:50;99861.81;;;9.82;78.10
33486;BME280;19824;52.098;5.004;2023-03-14T10:34:30;99874.72;;;10.11;78.62
33486;BME280;19824;52.098;5.004;2023-03-14T10:37:07;99871.75;;;10.30;76.95
33486;BME280;19824;52.098;5.004;2023-03-14T10:39:48;99885.72;;;10.40;77.82
33486;BME280;19824;52.098;5.004;2023-03-14T10:42:26;99907.81;;;10.32;76.34
33486;BME280;19824;52.098;5.004;2023-03-14T10:45:15;99915.16;;;10.38;76.08
33486;BME280;19824;52.098;5.004;2023-03-14T10:48:05;99930.06;;;10.15;75.22
33486;BME280;19824;52.098;5.004;2023-03-14T10:50:37;99940.22;;;10.12;73.64
33486;BME280;19824;52.098;5.004;2023-03-14T10:53:17;99947.88;;;10.15;74.35
33486;BME280;19824;52.098;5.004;2023-03-14T10:55:48;99941.91;;;10.29;74.60
33486;BME280;19824;52.098;5.004;2023-03-14T10:58:30;99956.06;;;10.37;73.18
33486;BME280;19824;52.098;5.004;2023-03-14T11:01:15;99980.16;;;10.36;71.52
33486;BME280;19824;52.098;5.004;2023-03-14T11:03:58;99988.34;;;10.50;71.22
33486;BME280;19824;52.098;5.004;2023-03-14T11:06:38;99991.91;;;10.90;71.38
33486;BME280;19824;52.098;5.004;2023-03-14T11:09:23;99999.16;;;11.52;68.71
33486;BME280;19824;52.098;5.004;2023-03-14T11:12:04;100005.22;;;12.00;65.96
33486;BME280;19824;52.098;5.004;2023-03-14T11:14:57;100007.88;;;12.69;65.48
33486;BME280;19824;52.098;5.004;2023-03-14T11:17:38;100029.84;;;13.24;63.98
33486;BME280;19824;52.098;5.004;2023-03-14T11:20:33;100043.94;;;13.55;61.45
33486;BME280;19824;52.098;5.004;2023-03-14T11:23:16;100044.25;;;13.74;60.16
33486;BME280;19824;52.098;5.004;2023-03-14T11:25:56;100054.78;;;13.90;59.59
33486;BME280;19824;52.098;5.004;2023-03-14T11:28:37;100059.97;;;13.91;59.73
33486;BME280;19824;52.098;5.004;2023-03-14T11:31:18;100071.69;;;13.90;57.26
33486;BME280;19824;52.098;5.004;2023-03-14T11:34:04;100069.50;;;14.23;57.35
33486;BME280;19824;52.098;5.004;2023-03-14T11:36:39;100079.16;;;14.53;56.47
33486;BME280;19824;52.098;5.004;2023-03-14T11:39:19;100095.31;;;14.59;54.74
33486;BME280;19824;52.098;5.004;2023-03-14T11:41:52;100085.38;;;14.39;53.80
33486;BME280;19824;52.098;5.004;2023-03-14T11:44:37;100108.31;;;14.12;53.25
33486;BME280;19824;52.098;5.004;2023-03-14T11:47:13;100111.25;;;14.17;52.49
33486;BME280;19824;52.098;5.004;2023-03-14T11:49:57;100124.50;;;13.96;50.40
33486;BME280;19824;52.098;5.004;2023-03-14T11:52:32;100125.72;;;14.08;47.06
33486;BME280;19824;52.098;5.004;2023-03-14T11:55:17;100130.00;;;14.46;48.30
33486;BME280;19824;52.098;5.004;2023-03-14T11:58:00;100144.16;;;14.40;47.54
33486;BME280;19824;52.098;5.004;2023-03-14T12:00:31;100150.03;;;14.21;47.55
33486;BME280;19824;52.098;5.004;2023-03-14T12:03:21;100149.94;;;14.15;45.65
33486;BME280;19824;52.098;5.004;2023-03-14T12:06:06;100162.13;;;13.95;44.72
33486;BME280;19824;52.098;5.004;2023-03-14T12:08:48;100153.94;;;13.96;45.98
33486;BME280;19824;52.098;5.004;2023-03-14T12:11:32;100171.81;;;14.18;45.52
33486;BME280;19824;52.098;5.004;2023-03-14T12:14:23;100170.63;;;14.35;44.28
33486;BME280;19824;52.098;5.004;2023-03-14T12:16:57;100182.84;;;14.52;44.29
33486;BME280;19824;52.098;5.004;2023-03-14T12:19:39;100184.41;;;14.61;45.30
33486;BME280;19824;52.098;5.004;2023-03-14T12:22:28;100189.31;;;14.43;44.51
33486;BME280;19824;52.098;5.004;2023-03-14T12:25:15;100197.06;;;14.38;42.61
33486;BME280;19824;52.098;5.004;2023-03-14T12:28:04;100205.56;;;14.42;42.58
33486;BME280;19824;52.098;5.004;2023-03-14T12:30:42;100199.75;;;14.38;44.46
33486;BME280;19824;52.098;5.004;2023-03-14T12:33:30;100208.66;;;13.94;43.71
33486;BME280;19824;52.098;5.004;2023-03-14T12:36:52;100218.00;;;13.98;43.72
33486;BME280;19824;52.098;5.004;2023-03-14T12:39:42;100219.06;;;14.11;43.69
33486;BME280;19824;52.098;5.004;2023-03-14T12:42:22;100220.13;;;14.02;44.10
33486;BME280;19824;52.098;5.004;2023-03-14T12:45:24;100227.16;;;14.03;44.50
33486;BME280;19824;52.098;5.004;2023-03-14T12:48:09;100233.16;;;14.05;44.40
33486;BME280;19824;52.098;5.004;2023-03-14T12:50:44;100243.41;;;13.79;43.10
33486;BME280;19824;52.098;5.004;2023-03-14T12:56:53;100257.91;;;13.32;43.20
33486;BME280;19824;52.098;5.004;2023-03-14T12:59:35;100280.22;;;13.17;44.24
33486;BME280;19824;52.098;5.004;2023-03-14T13:02:26;100285.97;;;12.98;43.10
33486;BME280;19824;52.098;5.004;2023-03-14T13:05:08;100295.34;;;12.78;44.28
33486;BME280;19824;52.098;5.004;2023-03-14T13:08:06;100300.69;;;12.86;43.58
33486;BME280;19824;52.098;5.004;2023-03-14T13:10:42;100312.72;;;12.58;43.33
33486;BME280;19824;52.098;5.004;2023-03-14T13:13:23;100315.06;;;12.69;44.49
33486;BME280;19824;52.098;5.004;2023-03-14T13:15:56;100320.09;;;12.56;43.77
33486;BME280;19824;52.098;5.004;2023-03-14T13:18:39;100324.09;;;12.36;43.81
33486;BME280;19824;52.098;5.004;2023-03-14T13:21:13;100339.78;;;12.23;43.77
33486;BME280;19824;52.098;5.004;2023-03-14T13:23:58;100343.78;;;12.11;43.12
33486;BME280;19824;52.098;5.004;2023-03-14T13:26:37;100352.47;;;12.21;43.32
33486;BME280;19824;52.098;5.004;2023-03-14T13:29:18;100356.94;;;11.97;43.89
33486;BME280;19824;52.098;5.004;2023-03-14T13:31:51;100369.59;;;11.95;44.58
33486;BME280;19824;52.098;5.004;2023-03-14T13:34:31;100372.78;;;11.90;44.11
33486;BME280;19824;52.098;5.004;2023-03-14T13:37:02;100379.59;;;11.85;44.69
33486;BME280;19824;52.098;5.004;2023-03-14T13:39:40;100397.03;;;11.64;44.75
33486;BME280;19824;52.098;5.004;2023-03-14T13:42:15;100386.00;;;11.67;45.34
33486;BME280;19824;52.098;5.004;2023-03-14T13:44:54;100403.69;;;11.68;45.67
33486;BME280;19824;52.098;5.004;2023-03-14T13:47:25;100402.44;;;11.87;45.54
33486;BME280;19824;52.098;5.004;2023-03-14T13:50:03;100413.84;;;12.05;45.51
33486;BME280;19824;52.098;5.004;2023-03-14T13:52:37;100405.50;;;12.16;45.89
33486;BME280;19824;52.098;5.004;2023-03-14T13:55:17;100426.53;;;12.19;46.49
33486;BME280;19824;52.098;5.004;2023-03-14T13:57:54;100422.19;;;12.18;45.45
33486;BME280;19824;52.098;5.004;2023-03-14T14:00:31;100430.84;;;12.12;45.37
